ルアンダ の空港の天気 - METARとTAF

ルアンダ国際空港 ( FNLU / LAD ) - アンゴラ ルアンダ
飛行場実況気象(Metar)
観測時間12/10 05:00 WAT (12/10 04:00 UTC)
風向・風速南南東 2m/s
視程9000m
天気現象
少しの雲 雲底高度 550m
全天の8割程度の雲 雲底高度 2130m
気温25℃
湿度83%
気圧1014hPa
METARFNLU 100400Z 16004KT 9000 FEW018 BKN070 25/22 Q1014
過去の天気等 Google飛行場航空写真 Wunderground天気予報

過去48時間のMETAR

飛行場予報(TAF)
発表時間: 12/10 06:00 WAT (12/10 05:00 UTC)
予報対象時間: 10日7時 WAT ~ 11日13時 WAT
風向・風速南南東 3m/s
視程8000m
少しの雲 雲底高度 550m
全天の8割程度の雲 雲底高度 1220m
10日11時 WAT ~ 10日13時 WAT に徐々に
風向・風速西 5m/s
視程10km以上
少しの雲 雲底高度 610m
少しの積乱雲 雲底高度 670m
全天の8割程度の雲 雲底高度 1520m
10日21時 WAT ~ 10日23時 WAT に徐々に
風向・風速南南西 3m/s
視程8000m
全天の4割程度の雲 雲底高度 610m
全天の8割程度の雲 雲底高度 910m
TAF FNLU 100500Z 1006/1112 16005KT 8000 FEW018 BKN040
BECMG 1010/1012 27010KT 9999 FEW020 FEW022CB BKN050
BECMG 1020/1022 21005KT 8000 SCT020 BKN030